Time;durP1;ratioP1;P1;durP2;ratioP2;P2;SDS_P1;SDS_P2;PMS_P1;PMS_P2;Temp;Humidity;BMP_temperature;BMP_pressure;BME280_temperature;BME280_humidity;BME280_pressure;Samples;Min_cycle;Max_cycle;Signal;HPM_P1;HPM_P2
2023/10/19 00:00:19;;;;;;;5.28;4.50;;;;;;;;;;5811038;28;20098;-68
2023/10/19 00:03:11;;;;;;;8.05;4.35;;;;;;;;;;5797076;28;20133;-68
2023/10/19 00:06:02;;;;;;;8.02;4.70;;;;;;;;;;5773396;28;20050;-68
2023/10/19 00:08:53;;;;;;;10.35;4.60;;;;;;;;;;5773796;28;20066;-67
2023/10/19 00:11:44;;;;;;;13.45;6.88;;;;;;;;;;5773498;28;20057;-67
2023/10/19 00:14:35;;;;;;;13.35;7.13;;;;;;;;;;5774501;28;20055;-68
2023/10/19 00:17:27;;;;;;;15.18;6.68;;;;;;;;;;5789188;28;20288;-68
2023/10/19 00:23:32;;;;;;;;;;;;;;;;;;5774764;28;20055;-67
2023/10/19 00:26:29;;;;;;;17.23;8.48;;;;;;;;;;5772852;28;19922;-67
2023/10/19 00:29:39;;;;;;;30.55;10.40;;;;;;;;;;5773053;28;20486;-68
2023/10/19 00:32:30;;;;;;;12.05;8.07;;;;;;;;;;5773562;28;20551;-68
2023/10/19 00:35:34;;;;;;;19.70;7.30;;;;;;;;;;5785027;28;20533;-68
2023/10/19 00:38:39;;;;;;;19.10;6.53;;;;;;;;;;5788732;28;20117;-68
2023/10/19 00:41:30;;;;;;;15.15;8.80;;;;;;;;;;5784452;28;20044;-68
2023/10/19 00:45:05;;;;;;;27.90;11.57;;;;;;;;;;5772608;28;20386;-68
2023/10/19 00:47:42;;;;;;;18.55;10.27;;;;;;;;;;5778437;28;20516;-68
2023/10/19 00:50:33;;;;;;;17.30;7.22;;;;;;;;;;5773860;28;20529;-68
2023/10/19 00:53:26;;;;;;;18.88;7.07;;;;;;;;;;5772316;28;20057;-67
2023/10/19 00:56:19;;;;;;;10.05;4.82;;;;;;;;;;5773807;28;20050;-68
2023/10/19 00:59:20;;;;;;;9.52;4.18;;;;;;;;;;5773558;28;20051;-68
2023/10/19 01:02:18;;;;;;;15.85;4.57;;;;;;;;;;5788112;28;20126;-68
2023/10/19 01:05:13;;;;;;;6.85;4.03;;;;;;;;;;5772259;28;20051;-68
2023/10/19 01:08:22;;;;;;;29.58;11.68;;;;;;;;;;5773291;28;20058;-68
2023/10/19 01:11:15;;;;;;;14.57;4.53;;;;;;;;;;5772342;28;20553;-67
2023/10/19 01:14:27;;;;;;;5.10;3.97;;;;;;;;;;5771999;28;20445;-68
2023/10/19 01:17:19;;;;;;;9.85;4.75;;;;;;;;;;5775510;28;20469;-67
2023/10/19 01:23:21;;;;;;;7.63;3.60;;;;;;;;;;5794365;28;20061;-67
2023/10/19 01:26:18;;;;;;;11.70;4.53;;;;;;;;;;5795331;28;20055;-68
2023/10/19 01:29:17;;;;;;;4.50;2.72;;;;;;;;;;5794538;28;20479;-68
2023/10/19 01:32:12;;;;;;;;;;;;;;;;;;5794635;28;20081;-68
2023/10/19 01:35:03;;;;;;;5.75;3.97;;;;;;;;;;5794765;28;20415;-68
2023/10/19 01:37:53;;;;;;;4.22;3.35;;;;;;;;;;5794328;28;20060;-68
2023/10/19 01:40:48;;;;;;;8.65;4.07;;;;;;;;;;5794117;28;20179;-67
2023/10/19 01:43:43;;;;;;;7.88;3.97;;;;;;;;;;5794452;28;20046;-68
2023/10/19 01:46:35;;;;;;;7.47;4.13;;;;;;;;;;5794819;28;20412;-67
2023/10/19 01:49:27;;;;;;;14.73;5.00;;;;;;;;;;5793628;28;20053;-68
2023/10/19 01:52:18;;;;;;;6.38;3.75;;;;;;;;;;5759561;28;20061;-68
2023/10/19 01:55:09;;;;;;;8.65;4.05;;;;;;;;;;5788448;28;20075;-68
2023/10/19 01:58:00;;;;;;;5.30;3.20;;;;;;;;;;5793916;28;20191;-68
2023/10/19 02:00:55;;;;;;;4.00;3.40;;;;;;;;;;5763298;28;20465;-68
2023/10/19 02:03:59;;;;;;;7.57;4.72;;;;;;;;;;5786106;28;20130;-67
2023/10/19 02:06:52;;;;;;;8.98;5.55;;;;;;;;;;5771413;28;20043;-68
2023/10/19 02:09:43;;;;;;;11.75;6.57;;;;;;;;;;5772316;28;20505;-67
2023/10/19 02:12:34;;;;;;;14.25;8.82;;;;;;;;;;5772265;28;20047;-68
2023/10/19 02:15:25;;;;;;;12.40;6.63;;;;;;;;;;5770837;28;20043;-67
2023/10/19 02:18:17;;;;;;;8.95;5.15;;;;;;;;;;5770816;28;20051;-68
2023/10/19 02:21:11;;;;;;;13.98;6.90;;;;;;;;;;5771027;28;20133;-68
2023/10/19 02:24:03;;;;;;;16.60;7.82;;;;;;;;;;5770943;28;20047;-68
2023/10/19 02:26:57;;;;;;;10.98;6.85;;;;;;;;;;5787025;28;20054;-68
2023/10/19 02:29:47;;;;;;;13.50;5.40;;;;;;;;;;5770623;28;20051;-67
2023/10/19 02:32:38;;;;;;;7.63;4.70;;;;;;;;;;5785241;28;20063;-68
2023/10/19 02:35:29;;;;;;;8.45;5.00;;;;;;;;;;5786710;28;20501;-67
2023/10/19 02:38:22;;;;;;;12.13;3.92;;;;;;;;;;5786594;28;20051;-67
2023/10/19 02:41:12;;;;;;;10.10;4.75;;;;;;;;;;5771858;28;20051;-68
2023/10/19 02:44:09;;;;;;;14.10;5.78;;;;;;;;;;5770466;28;20063;-68
2023/10/19 02:47:05;;;;;;;5.32;3.65;;;;;;;;;;5786923;28;20190;-68
2023/10/19 02:49:57;;;;;;;8.40;3.92;;;;;;;;;;5793845;28;20047;-68
2023/10/19 02:52:48;;;;;;;12.38;6.25;;;;;;;;;;5792944;28;20051;-67
2023/10/19 02:55:40;;;;;;;10.07;5.63;;;;;;;;;;5756907;28;20596;-67
2023/10/19 02:58:31;;;;;;;9.55;5.93;;;;;;;;;;5786878;28;20153;-67
2023/10/19 03:01:22;;;;;;;17.02;8.15;;;;;;;;;;5798625;28;20105;-67
2023/10/19 03:04:12;;;;;;;13.57;8.43;;;;;;;;;;5817639;28;20050;-67
2023/10/19 03:07:04;;;;;;;12.95;6.68;;;;;;;;;;5819942;28;20418;-68
2023/10/19 03:09:55;;;;;;;12.82;7.38;;;;;;;;;;5804270;28;20412;-67
2023/10/19 03:12:47;;;;;;;11.18;8.07;;;;;;;;;;5819831;28;20065;-67
2023/10/19 03:15:42;;;;;;;16.42;7.10;;;;;;;;;;5818905;28;20538;-67
2023/10/19 03:18:35;;;;;;;7.82;5.30;;;;;;;;;;5804172;28;20056;-67
2023/10/19 03:21:32;;;;;;;9.63;6.00;;;;;;;;;;5820880;28;20171;-68
2023/10/19 03:24:35;;;;;;;4.88;3.92;;;;;;;;;;5819504;28;20046;-67
2023/10/19 03:27:26;;;;;;;13.75;4.80;;;;;;;;;;5820576;28;20061;-68
2023/10/19 03:30:18;;;;;;;17.63;7.38;;;;;;;;;;5803357;28;20054;-68
2023/10/19 03:33:10;;;;;;;14.63;8.50;;;;;;;;;;5835612;28;20518;-67
2023/10/19 03:36:01;;;;;;;12.38;8.27;;;;;;;;;;5803424;28;20133;-71
2023/10/19 03:38:53;;;;;;;16.50;8.63;;;;;;;;;;5819567;28;20519;-68
2023/10/19 03:41:44;;;;;;;25.08;8.68;;;;;;;;;;5819162;28;20068;-68
2023/10/19 03:47:35;;;;;;;28.08;8.77;;;;;;;;;;5820142;28;20076;-68
2023/10/19 03:50:29;;;;;;;23.63;9.68;;;;;;;;;;5818995;28;20133;-68
2023/10/19 03:53:21;;;;;;;15.15;7.05;;;;;;;;;;5819989;28;20080;-68
2023/10/19 03:56:12;;;;;;;12.98;7.47;;;;;;;;;;5803043;28;20058;-68
2023/10/19 03:59:04;;;;;;;18.27;6.00;;;;;;;;;;5818985;28;20050;-68
2023/10/19 04:01:56;;;;;;;17.55;8.73;;;;;;;;;;5820580;28;20053;-67
2023/10/19 04:04:52;;;;;;;15.27;7.95;;;;;;;;;;5819941;28;20050;-67
2023/10/19 04:07:43;;;;;;;10.25;6.20;;;;;;;;;;5802079;28;20081;-67
2023/10/19 04:13:25;;;;;;;12.48;7.13;;;;;;;;;;5818362;28;20891;-67
2023/10/19 04:16:16;;;;;;;15.10;6.43;;;;;;;;;;5819827;28;20052;-68
2023/10/19 04:19:07;;;;;;;16.23;8.27;;;;;;;;;;5818308;28;20050;-68
2023/10/19 04:21:58;;;;;;;14.02;5.90;;;;;;;;;;5818843;28;20054;-67
2023/10/19 04:24:52;;;;;;;18.27;6.70;;;;;;;;;;5818049;28;20061;-67
2023/10/19 04:27:43;;;;;;;34.10;11.18;;;;;;;;;;5818023;28;20137;-67
2023/10/19 04:30:36;;;;;;;10.95;6.28;;;;;;;;;;5819292;28;20555;-67
2023/10/19 04:33:28;;;;;;;19.00;9.18;;;;;;;;;;5802398;28;20043;-67
2023/10/19 04:36:21;;;;;;;18.98;8.00;;;;;;;;;;5819182;28;20062;-67
2023/10/19 04:39:13;;;;;;;39.88;16.30;;;;;;;;;;5834077;28;20145;-68
2023/10/19 04:42:04;;;;;;;18.85;11.82;;;;;;;;;;5817928;28;20054;-68
2023/10/19 04:44:56;;;;;;;18.75;9.63;;;;;;;;;;5818137;28;20050;-67
2023/10/19 04:47:54;;;;;;;14.85;7.63;;;;;;;;;;5818686;28;20057;-68
2023/10/19 04:50:46;;;;;;;20.75;9.50;;;;;;;;;;5817559;28;20039;-67
2023/10/19 04:53:37;;;;;;;64.63;25.25;;;;;;;;;;5817796;28;20058;-67
2023/10/19 04:56:28;;;;;;;20.77;6.22;;;;;;;;;;5817556;28;20046;-68
2023/10/19 04:59:19;;;;;;;15.35;4.55;;;;;;;;;;5817284;28;20061;-67
2023/10/19 05:02:10;;;;;;;13.07;6.38;;;;;;;;;;5801468;28;20512;-68
2023/10/19 05:05:01;;;;;;;10.07;5.43;;;;;;;;;;5817572;28;20452;-69
2023/10/19 05:07:51;;;;;;;8.25;5.47;;;;;;;;;;5818803;28;20523;-67
2023/10/19 05:10:42;;;;;;;9.18;5.60;;;;;;;;;;5801308;28;20572;-67
2023/10/19 05:13:34;;;;;;;8.13;4.25;;;;;;;;;;5816899;28;20408;-67
2023/10/19 05:16:26;;;;;;;6.25;3.65;;;;;;;;;;5801310;28;20693;-67
2023/10/19 05:19:17;;;;;;;6.10;4.00;;;;;;;;;;5816707;28;20129;-68
2023/10/19 05:22:09;;;;;;;5.85;3.90;;;;;;;;;;5816971;28;20459;-69
2023/10/19 05:25:01;;;;;;;10.90;6.10;;;;;;;;;;5817355;28;20050;-68
2023/10/19 05:27:52;;;;;;;16.65;7.60;;;;;;;;;;5818217;28;20046;-67
2023/10/19 05:30:43;;;;;;;13.75;7.45;;;;;;;;;;5800887;28;20046;-68
2023/10/19 05:33:34;;;;;;;14.90;8.95;;;;;;;;;;5818061;28;20416;-67
2023/10/19 05:36:25;;;;;;;12.65;7.80;;;;;;;;;;5818063;28;20065;-68
2023/10/19 05:39:16;;;;;;;13.38;6.35;;;;;;;;;;5816395;28;20081;-68
2023/10/19 05:42:07;;;;;;;9.00;3.92;;;;;;;;;;5816582;28;20117;-68
2023/10/19 05:44:59;;;;;;;5.35;4.53;;;;;;;;;;5800987;28;20053;-68
2023/10/19 05:47:50;;;;;;;9.57;4.28;;;;;;;;;;5817541;28;20043;-68
2023/10/19 05:50:42;;;;;;;7.10;4.70;;;;;;;;;;5816439;28;20066;-68
2023/10/19 05:53:33;;;;;;;20.77;7.90;;;;;;;;;;5816454;28;20512;-68
2023/10/19 05:56:24;;;;;;;21.67;9.85;;;;;;;;;;5817478;28;20054;-68
2023/10/19 05:59:15;;;;;;;25.27;10.85;;;;;;;;;;5817536;28;20501;-68
2023/10/19 06:02:07;;;;;;;23.27;16.30;;;;;;;;;;5816309;28;20469;-69
2023/10/19 06:04:58;;;;;;;44.65;23.08;;;;;;;;;;5817939;28;20125;-68
2023/10/19 06:07:50;;;;;;;22.45;16.45;;;;;;;;;;5816042;28;20045;-68
2023/10/19 06:10:42;;;;;;;30.88;15.60;;;;;;;;;;5817497;28;20050;-68
2023/10/19 06:13:33;;;;;;;39.38;19.67;;;;;;;;;;5817298;28;20058;-68
2023/10/19 06:16:24;;;;;;;7.65;5.93;;;;;;;;;;5817311;28;20050;-68
2023/10/19 06:19:16;;;;;;;24.45;13.63;;;;;;;;;;5817206;28;20050;-68
2023/10/19 06:22:08;;;;;;;8.57;6.53;;;;;;;;;;5817187;28;20060;-68
2023/10/19 06:24:58;;;;;;;14.63;7.55;;;;;;;;;;5816650;28;20155;-68
2023/10/19 06:27:51;;;;;;;18.67;12.82;;;;;;;;;;5799640;28;20051;-68
2023/10/19 06:30:42;;;;;;;12.80;6.20;;;;;;;;;;5817177;28;20136;-68
2023/10/19 06:33:33;;;;;;;35.67;16.30;;;;;;;;;;5820555;28;20455;-68
2023/10/19 06:36:24;;;;;;;57.90;20.05;;;;;;;;;;5820482;28;20055;-68
2023/10/19 06:39:15;;;;;;;16.30;6.43;;;;;;;;;;5820435;28;20105;-68
2023/10/19 06:42:09;;;;;;;69.78;29.02;;;;;;;;;;5821838;28;20076;-68
2023/10/19 06:44:59;;;;;;;73.63;34.45;;;;;;;;;;5822152;28;20055;-68
2023/10/19 06:47:51;;;;;;;24.05;10.07;;;;;;;;;;5820402;28;20068;-68
2023/10/19 06:50:42;;;;;;;22.27;12.20;;;;;;;;;;5804085;28;20052;-68
2023/10/19 06:53:37;;;;;;;27.98;17.33;;;;;;;;;;5804809;28;20050;-68
2023/10/19 06:56:28;;;;;;;35.35;18.27;;;;;;;;;;5820144;28;20054;-68
2023/10/19 06:59:19;;;;;;;11.50;6.88;;;;;;;;;;5821183;28;20130;-68
2023/10/19 07:02:12;;;;;;;8.65;5.43;;;;;;;;;;5836250;28;20054;-68
2023/10/19 07:05:04;;;;;;;7.65;6.05;;;;;;;;;;5820100;28;20058;-68
2023/10/19 07:07:58;;;;;;;12.20;5.53;;;;;;;;;;5820150;28;20046;-68
2023/10/19 07:10:49;;;;;;;8.13;5.15;;;;;;;;;;5819949;28;20050;-67
2023/10/19 07:13:40;;;;;;;4.35;3.53;;;;;;;;;;5821007;28;20054;-68
2023/10/19 07:16:31;;;;;;;2.97;2.78;;;;;;;;;;5819950;28;20459;-68
2023/10/19 07:19:23;;;;;;;30.70;6.90;;;;;;;;;;5803726;28;20101;-68
2023/10/19 07:22:14;;;;;;;3.92;2.83;;;;;;;;;;5803616;28;20042;-67
2023/10/19 07:25:06;;;;;;;9.80;6.63;;;;;;;;;;5819722;28;20057;-68
2023/10/19 07:27:59;;;;;;;4.32;3.83;;;;;;;;;;5819873;28;20148;-67
2023/10/19 07:30:51;;;;;;;13.95;8.93;;;;;;;;;;5819756;28;20150;-68
2023/10/19 07:33:45;;;;;;;9.80;5.55;;;;;;;;;;5835550;28;20456;-67
2023/10/19 07:36:36;;;;;;;18.25;7.03;;;;;;;;;;5820743;28;20185;-67
2023/10/19 07:39:29;;;;;;;10.65;5.22;;;;;;;;;;5820190;28;20050;-68
2023/10/19 07:42:21;;;;;;;20.30;10.02;;;;;;;;;;5818950;28;20137;-68
2023/10/19 07:45:12;;;;;;;27.20;10.45;;;;;;;;;;5820480;28;20428;-68
2023/10/19 07:48:10;;;;;;;11.20;6.78;;;;;;;;;;5818882;28;20054;-68
2023/10/19 07:51:01;;;;;;;7.85;5.55;;;;;;;;;;5819140;28;20141;-69
2023/10/19 07:53:52;;;;;;;19.25;9.02;;;;;;;;;;5819307;28;20056;-68
2023/10/19 07:56:43;;;;;;;7.45;5.00;;;;;;;;;;5802710;28;20042;-68
2023/10/19 07:59:35;;;;;;;11.65;5.38;;;;;;;;;;5818716;28;20050;-68
2023/10/19 08:02:25;;;;;;;7.65;4.70;;;;;;;;;;5818651;28;20050;-67
2023/10/19 08:05:20;;;;;;;5.78;5.18;;;;;;;;;;5818975;28;20047;-68
2023/10/19 08:08:12;;;;;;;6.03;4.03;;;;;;;;;;5803124;28;20051;-68
2023/10/19 08:11:03;;;;;;;5.47;4.45;;;;;;;;;;5818768;28;20060;-68
2023/10/19 08:13:55;;;;;;;6.57;4.38;;;;;;;;;;5820265;28;20130;-67
2023/10/19 08:16:46;;;;;;;3.53;3.22;;;;;;;;;;5818434;28;20422;-68
2023/10/19 08:19:36;;;;;;;5.57;4.65;;;;;;;;;;5818412;28;20571;-68
2023/10/19 08:22:27;;;;;;;5.82;3.63;;;;;;;;;;5819539;28;20276;-68
2023/10/19 08:25:18;;;;;;;8.52;3.42;;;;;;;;;;5819478;28;20088;-67
2023/10/19 08:28:11;;;;;;;10.10;5.93;;;;;;;;;;5818149;28;20047;-68
2023/10/19 08:31:01;;;;;;;4.63;3.90;;;;;;;;;;5802186;28;20066;-69
2023/10/19 08:33:54;;;;;;;23.27;10.73;;;;;;;;;;5819670;28;20565;-68
2023/10/19 08:36:45;;;;;;;7.78;5.50;;;;;;;;;;5819390;28;20053;-68
2023/10/19 08:39:36;;;;;;;6.05;4.25;;;;;;;;;;5818014;28;20050;-68
2023/10/19 08:42:30;;;;;;;7.50;4.85;;;;;;;;;;5817843;28;20051;-68
2023/10/19 08:45:21;;;;;;;23.55;13.27;;;;;;;;;;5818025;28;20065;-69
2023/10/19 08:48:14;;;;;;;5.20;4.38;;;;;;;;;;5818665;28;20049;-69
2023/10/19 08:51:09;;;;;;;6.05;3.20;;;;;;;;;;5818881;28;20496;-68
2023/10/19 08:54:02;;;;;;;4.60;3.03;;;;;;;;;;5817635;28;20042;-68
2023/10/19 08:56:55;;;;;;;12.48;5.70;;;;;;;;;;5819211;28;20538;-68
2023/10/19 08:59:46;;;;;;;10.50;5.90;;;;;;;;;;5817966;28;20050;-68
2023/10/19 09:02:37;;;;;;;7.93;4.32;;;;;;;;;;5817251;28;20049;-68
2023/10/19 09:05:30;;;;;;;5.60;3.22;;;;;;;;;;5819174;28;20050;-68
2023/10/19 09:08:22;;;;;;;10.25;4.18;;;;;;;;;;5817610;28;20050;-68
2023/10/19 09:11:13;;;;;;;250.98;81.93;;;;;;;;;;5817345;28;20456;-68
2023/10/19 09:14:04;;;;;;;140.57;51.47;;;;;;;;;;5818236;28;20105;-69
2023/10/19 09:16:57;;;;;;;168.88;61.30;;;;;;;;;;5817331;28;20046;-68
2023/10/19 09:19:48;;;;;;;52.80;11.13;;;;;;;;;;5816983;28;20046;-68
2023/10/19 09:22:44;;;;;;;9.43;7.05;;;;;;;;;;5818209;28;20047;-68
2023/10/19 09:25:35;;;;;;;15.60;10.30;;;;;;;;;;5816986;28;20054;-68
2023/10/19 09:28:26;;;;;;;10.68;5.95;;;;;;;;;;5817847;28;20070;-68
2023/10/19 09:31:18;;;;;;;19.02;8.13;;;;;;;;;;5800622;28;20471;-68
2023/10/19 09:34:11;;;;;;;475.80;180.73;;;;;;;;;;5816626;28;20500;-68
2023/10/19 09:37:03;;;;;;;191.13;62.20;;;;;;;;;;5816525;28;20092;-69
2023/10/19 09:39:55;;;;;;;61.03;22.60;;;;;;;;;;5817161;28;20141;-68
2023/10/19 09:42:50;;;;;;;17.42;5.60;;;;;;;;;;5800426;28;20042;-68
2023/10/19 09:45:42;;;;;;;10.52;4.45;;;;;;;;;;5816453;28;20082;-68
2023/10/19 09:48:42;;;;;;;20.88;8.80;;;;;;;;;;5816142;28;20046;-68
2023/10/19 09:51:34;;;;;;;14.77;6.32;;;;;;;;;;5800469;28;20424;-68
2023/10/19 09:54:51;;;;;;;44.28;15.93;;;;;;;;;;5816199;28;20073;-68
2023/10/19 09:57:59;;;;;;;15.77;8.65;;;;;;;;;;5816305;28;20050;-68
2023/10/19 10:00:57;;;;;;;6.40;4.28;;;;;;;;;;5816443;28;20048;-68
2023/10/19 10:03:51;;;;;;;5.07;3.20;;;;;;;;;;5816222;28;20044;-68
2023/10/19 10:06:53;;;;;;;7.97;4.00;;;;;;;;;;5799412;28;20053;-69
2023/10/19 10:09:44;;;;;;;9.45;6.78;;;;;;;;;;5817044;28;20055;-69
2023/10/19 10:12:35;;;;;;;6.95;4.70;;;;;;;;;;5800032;28;20133;-69
2023/10/19 10:15:40;;;;;;;3.75;2.40;;;;;;;;;;5817249;28;20053;-69
2023/10/19 10:18:32;;;;;;;4.05;3.33;;;;;;;;;;5816124;28;20700;-68
2023/10/19 10:21:26;;;;;;;8.68;4.05;;;;;;;;;;5815848;28;20046;-68
2023/10/19 10:24:17;;;;;;;21.45;2.85;;;;;;;;;;5816932;28;20062;-68
2023/10/19 10:27:09;;;;;;;11.55;4.43;;;;;;;;;;5817111;28;20161;-69
2023/10/19 10:30:06;;;;;;;5.35;3.80;;;;;;;;;;5832418;28;20058;-69
2023/10/19 10:32:59;;;;;;;5.65;3.80;;;;;;;;;;5816200;28;20422;-69
2023/10/19 10:35:53;;;;;;;8.85;4.22;;;;;;;;;;5816076;28;20070;-69
2023/10/19 10:38:50;;;;;;;8.85;3.55;;;;;;;;;;5815636;28;20062;-68
2023/10/19 10:41:41;;;;;;;3.00;2.45;;;;;;;;;;5815518;28;20135;-68
2023/10/19 10:44:52;;;;;;;12.10;5.00;;;;;;;;;;5799625;28;20058;-69
2023/10/19 10:47:44;;;;;;;4.43;3.15;;;;;;;;;;5815628;28;20053;-68
2023/10/19 10:50:37;;;;;;;6.28;3.40;;;;;;;;;;5816877;28;20054;-68
2023/10/19 10:53:28;;;;;;;7.05;4.30;;;;;;;;;;5816948;28;20531;-68
2023/10/19 10:56:23;;;;;;;4.13;3.17;;;;;;;;;;5799448;28;20057;-67
2023/10/19 10:59:14;;;;;;;7.20;3.72;;;;;;;;;;5815582;28;20711;-68
2023/10/19 11:02:18;;;;;;;3.75;2.58;;;;;;;;;;5815357;28;20189;-68
2023/10/19 11:05:11;;;;;;;4.70;3.63;;;;;;;;;;5816865;28;20523;-68
2023/10/19 11:08:21;;;;;;;5.90;3.88;;;;;;;;;;5816759;28;20097;-68
2023/10/19 11:11:12;;;;;;;3.97;3.17;;;;;;;;;;5815614;28;20054;-68
2023/10/19 11:14:13;;;;;;;7.20;4.93;;;;;;;;;;5815095;28;20051;-69
2023/10/19 11:17:16;;;;;;;7.45;5.28;;;;;;;;;;5818145;28;20054;-68
2023/10/19 11:20:07;;;;;;;6.38;3.63;;;;;;;;;;5819641;28;20082;-68
2023/10/19 11:23:01;;;;;;;3.13;2.70;;;;;;;;;;5820976;28;20077;-68
2023/10/19 11:25:58;;;;;;;5.75;2.97;;;;;;;;;;5819732;28;20412;-68
2023/10/19 11:29:04;;;;;;;11.82;4.13;;;;;;;;;;5819049;28;20042;-68
2023/10/19 11:32:02;;;;;;;5.22;3.00;;;;;;;;;;5811957;28;20054;-68
2023/10/19 11:34:56;;;;;;;7.15;3.85;;;;;;;;;;5819386;28;20054;-68
2023/10/19 11:37:54;;;;;;;5.00;3.17;;;;;;;;;;5818859;28;20057;-68
2023/10/19 11:40:45;;;;;;;4.80;2.72;;;;;;;;;;5803547;28;20046;-68
2023/10/19 11:43:36;;;;;;;4.25;3.13;;;;;;;;;;5820084;28;20112;-68
2023/10/19 11:46:29;;;;;;;7.43;3.15;;;;;;;;;;5820208;28;20192;-68
2023/10/19 11:49:20;;;;;;;6.22;4.03;;;;;;;;;;5819762;28;20050;-68
2023/10/19 11:52:14;;;;;;;6.43;4.38;;;;;;;;;;5818721;28;20058;-68
2023/10/19 11:55:06;;;;;;;7.43;4.20;;;;;;;;;;5820079;28;20062;-68
2023/10/19 11:57:57;;;;;;;13.15;5.68;;;;;;;;;;5820236;28;20570;-67
2023/10/19 12:00:48;;;;;;;7.13;4.88;;;;;;;;;;5818696;28;20042;-68
2023/10/19 12:03:40;;;;;;;8.70;5.32;;;;;;;;;;5834689;28;20073;-68
2023/10/19 12:06:31;;;;;;;9.52;5.03;;;;;;;;;;5818385;28;20057;-68
2023/10/19 12:09:24;;;;;;;6.82;4.82;;;;;;;;;;5818272;28;20420;-68
2023/10/19 12:12:15;;;;;;;12.77;6.43;;;;;;;;;;5819721;28;20058;-68
2023/10/19 12:15:07;;;;;;;10.27;4.90;;;;;;;;;;5802335;28;20061;-69
2023/10/19 12:17:59;;;;;;;11.18;6.00;;;;;;;;;;5820113;28;20129;-68
2023/10/19 12:20:50;;;;;;;6.90;4.53;;;;;;;;;;5811695;28;20468;-68
2023/10/19 12:23:43;;;;;;;9.63;5.57;;;;;;;;;;5816894;28;20046;-68
2023/10/19 12:26:34;;;;;;;6.03;3.85;;;;;;;;;;5818377;28;20042;-68
2023/10/19 12:29:25;;;;;;;7.53;5.13;;;;;;;;;;5795761;28;20385;-68
2023/10/19 12:32:16;;;;;;;11.85;6.80;;;;;;;;;;5786955;28;20054;-67
2023/10/19 12:35:11;;;;;;;9.88;6.05;;;;;;;;;;5782071;28;20193;-69
2023/10/19 12:38:06;;;;;;;12.32;7.88;;;;;;;;;;5787262;28;20158;-68
2023/10/19 12:40:57;;;;;;;13.82;6.00;;;;;;;;;;5784530;28;20454;-68
2023/10/19 12:43:48;;;;;;;17.73;6.15;;;;;;;;;;5768717;28;20055;-68
2023/10/19 12:46:39;;;;;;;15.60;7.90;;;;;;;;;;5764933;28;20050;-68
2023/10/19 12:49:30;;;;;;;17.00;8.73;;;;;;;;;;5779574;28;20058;-68
2023/10/19 12:52:22;;;;;;;15.93;8.32;;;;;;;;;;5761717;28;22004;-68
2023/10/19 12:55:14;;;;;;;19.85;9.45;;;;;;;;;;5782393;28;20424;-68
2023/10/19 12:58:09;;;;;;;23.60;9.48;;;;;;;;;;5794317;28;20061;-68
2023/10/19 13:01:00;;;;;;;11.35;7.53;;;;;;;;;;5771821;28;20062;-68
2023/10/19 13:03:51;;;;;;;34.35;17.48;;;;;;;;;;5772620;28;20409;-68
2023/10/19 13:06:42;;;;;;;19.23;12.07;;;;;;;;;;5759924;28;20051;-68
2023/10/19 13:09:36;;;;;;;28.70;15.68;;;;;;;;;;5783221;28;20047;-68
2023/10/19 13:12:27;;;;;;;17.63;8.93;;;;;;;;;;5793465;28;20055;-68
2023/10/19 13:15:18;;;;;;;13.00;8.18;;;;;;;;;;5766210;28;20062;-69
2023/10/19 13:18:10;;;;;;;27.73;14.02;;;;;;;;;;5796264;28;20061;-69
2023/10/19 13:21:05;;;;;;;16.05;8.10;;;;;;;;;;5779327;28;20130;-70
2023/10/19 13:23:57;;;;;;;15.75;10.15;;;;;;;;;;5785217;28;20050;-69
2023/10/19 13:26:48;;;;;;;45.17;22.73;;;;;;;;;;5778045;28;20047;-70
2023/10/19 13:29:41;;;;;;;16.90;11.38;;;;;;;;;;5789548;28;20065;-70
2023/10/19 13:32:32;;;;;;;26.30;13.30;;;;;;;;;;5779283;28;20413;-70
2023/10/19 13:35:24;;;;;;;13.15;8.68;;;;;;;;;;5766953;28;20051;-70
2023/10/19 13:38:17;;;;;;;9.80;5.45;;;;;;;;;;5773777;28;20150;-69
2023/10/19 13:41:09;;;;;;;8.63;6.72;;;;;;;;;;5767334;28;20056;-71
2023/10/19 13:44:01;;;;;;;7.88;5.57;;;;;;;;;;5768798;28;20394;-71
2023/10/19 13:46:54;;;;;;;9.98;5.50;;;;;;;;;;5760254;28;20054;-70
2023/10/19 13:49:46;;;;;;;8.85;5.35;;;;;;;;;;5744675;28;20118;-69
2023/10/19 13:52:37;;;;;;;12.57;8.48;;;;;;;;;;5773001;28;20106;-70
2023/10/19 13:55:28;;;;;;;6.45;4.78;;;;;;;;;;5754455;28;20135;-70
2023/10/19 13:58:19;;;;;;;10.07;5.47;;;;;;;;;;5769894;28;20050;-70
2023/10/19 14:01:10;;;;;;;11.13;6.97;;;;;;;;;;5771361;28;20053;-70
2023/10/19 14:04:04;;;;;;;9.82;7.68;;;;;;;;;;5758257;28;20102;-70
2023/10/19 14:06:56;;;;;;;8.95;6.85;;;;;;;;;;5770561;28;20062;-69
2023/10/19 14:09:47;;;;;;;11.38;6.40;;;;;;;;;;5789539;28;20039;-69
2023/10/19 14:12:43;;;;;;;11.00;7.38;;;;;;;;;;5777765;28;20054;-70
2023/10/19 14:15:34;;;;;;;19.73;9.82;;;;;;;;;;5778675;28;20688;-70
2023/10/19 14:18:25;;;;;;;8.80;6.57;;;;;;;;;;5770283;28;20051;-70
2023/10/19 14:21:20;;;;;;;10.95;7.00;;;;;;;;;;5791956;28;20046;-70
2023/10/19 14:24:10;;;;;;;12.73;7.50;;;;;;;;;;5815899;28;20272;-70
2023/10/19 14:27:02;;;;;;;11.23;8.70;;;;;;;;;;5801875;28;20050;-71
2023/10/19 14:29:53;;;;;;;18.85;11.63;;;;;;;;;;5801409;28;20046;-69
2023/10/19 14:32:48;;;;;;;10.40;6.63;;;;;;;;;;5787145;28;20053;-69
2023/10/19 14:35:41;;;;;;;12.80;9.20;;;;;;;;;;5801886;28;20051;-70
2023/10/19 14:38:33;;;;;;;11.68;7.50;;;;;;;;;;5805304;28;20050;-70
2023/10/19 14:41:24;;;;;;;13.40;7.13;;;;;;;;;;5800201;28;20408;-69
2023/10/19 14:44:15;;;;;;;15.50;7.05;;;;;;;;;;5804112;28;20050;-70
2023/10/19 14:47:06;;;;;;;13.90;7.90;;;;;;;;;;5796255;28;20042;-70
2023/10/19 14:49:57;;;;;;;13.60;8.55;;;;;;;;;;5803280;28;20046;-69
2023/10/19 14:52:54;;;;;;;13.98;10.48;;;;;;;;;;5805985;28;20050;-70
2023/10/19 14:55:48;;;;;;;20.80;12.40;;;;;;;;;;5806983;28;20046;-70
2023/10/19 14:58:38;;;;;;;15.02;10.18;;;;;;;;;;5806967;28;20493;-70
2023/10/19 15:01:29;;;;;;;8.40;7.53;;;;;;;;;;5806030;28;20138;-70
2023/10/19 15:04:20;;;;;;;13.20;8.85;;;;;;;;;;5805652;28;20341;-70
2023/10/19 15:07:12;;;;;;;21.20;10.45;;;;;;;;;;5789546;28;21300;-70
2023/10/19 15:10:03;;;;;;;46.95;19.17;;;;;;;;;;5797093;28;20043;-70
2023/10/19 15:12:55;;;;;;;47.90;23.98;;;;;;;;;;5804381;28;20096;-70
2023/10/19 15:15:46;;;;;;;87.43;34.15;;;;;;;;;;5777385;28;20047;-70
2023/10/19 15:18:39;;;;;;;33.63;16.20;;;;;;;;;;5775343;28;20492;-70
2023/10/19 15:21:29;;;;;;;25.50;15.93;;;;;;;;;;5763090;28;20132;-69
2023/10/19 15:24:20;;;;;;;135.65;52.25;;;;;;;;;;5774599;28;20082;-70
2023/10/19 15:27:11;;;;;;;25.88;15.40;;;;;;;;;;5792806;28;20046;-70
2023/10/19 15:30:05;;;;;;;20.80;14.85;;;;;;;;;;5804971;28;20049;-70
2023/10/19 15:32:56;;;;;;;21.40;14.02;;;;;;;;;;5810243;28;20047;-70
2023/10/19 15:35:48;;;;;;;41.55;18.73;;;;;;;;;;5806212;28;20034;-70
2023/10/19 15:38:38;;;;;;;27.80;16.20;;;;;;;;;;5781326;28;20421;-70
2023/10/19 15:41:29;;;;;;;21.85;14.00;;;;;;;;;;5789196;28;20050;-70
2023/10/19 15:44:20;;;;;;;33.72;19.63;;;;;;;;;;5810597;28;20061;-70
2023/10/19 15:47:12;;;;;;;32.28;18.02;;;;;;;;;;5790255;28;20516;-70
2023/10/19 15:50:04;;;;;;;77.88;39.80;;;;;;;;;;5788888;28;20098;-70
2023/10/19 15:52:55;;;;;;;52.03;23.13;;;;;;;;;;5810983;28;20082;-70
2023/10/19 15:55:46;;;;;;;42.67;26.80;;;;;;;;;;5776102;28;20050;-69
2023/10/19 15:58:37;;;;;;;28.05;18.83;;;;;;;;;;5786676;28;20054;-70
2023/10/19 16:01:30;;;;;;;39.25;26.23;;;;;;;;;;5762102;28;20056;-69
2023/10/19 16:04:21;;;;;;;29.65;17.25;;;;;;;;;;5772773;28;20059;-69
2023/10/19 16:07:15;;;;;;;17.17;13.10;;;;;;;;;;5767068;28;20054;-70
2023/10/19 16:10:08;;;;;;;55.33;22.27;;;;;;;;;;5778373;28;20496;-71
2023/10/19 16:12:59;;;;;;;24.58;12.55;;;;;;;;;;5798716;28;20496;-69
2023/10/19 16:15:52;;;;;;;95.75;43.90;;;;;;;;;;5793412;28;20365;-69
2023/10/19 16:18:44;;;;;;;41.67;25.08;;;;;;;;;;5781016;28;20059;-70
2023/10/19 16:21:36;;;;;;;32.15;20.10;;;;;;;;;;5796007;28;20055;-70
2023/10/19 16:24:29;;;;;;;24.35;13.85;;;;;;;;;;5812422;28;20057;-70
2023/10/19 16:27:20;;;;;;;66.68;24.60;;;;;;;;;;5783381;28;20052;-70
2023/10/19 16:30:16;;;;;;;88.68;30.08;;;;;;;;;;5768946;28;20493;-69
2023/10/19 16:33:07;;;;;;;42.70;20.15;;;;;;;;;;5767504;28;20130;-70
2023/10/19 16:35:58;;;;;;;28.85;15.50;;;;;;;;;;5774035;28;20058;-69
2023/10/19 16:38:49;;;;;;;23.30;14.55;;;;;;;;;;5795906;28;20051;-69
2023/10/19 16:41:40;;;;;;;48.95;22.58;;;;;;;;;;5794827;28;20130;-69
2023/10/19 16:44:31;;;;;;;77.20;33.72;;;;;;;;;;5793638;28;20046;-69
2023/10/19 16:47:22;;;;;;;31.67;17.95;;;;;;;;;;5796020;28;20516;-69
2023/10/19 16:50:18;;;;;;;72.20;30.35;;;;;;;;;;5790579;28;20059;-69
2023/10/19 16:53:10;;;;;;;26.10;17.40;;;;;;;;;;5795867;28;20051;-70
2023/10/19 16:56:03;;;;;;;34.00;16.20;;;;;;;;;;5788813;28;20047;-70
2023/10/19 16:58:54;;;;;;;34.50;19.33;;;;;;;;;;5777541;28;20058;-69
2023/10/19 17:01:45;;;;;;;42.58;18.85;;;;;;;;;;5772336;28;20047;-69
2023/10/19 17:04:36;;;;;;;53.30;21.00;;;;;;;;;;5781189;23;20047;-69
2023/10/19 17:07:27;;;;;;;51.67;18.85;;;;;;;;;;5760061;28;20048;-69
2023/10/19 17:10:18;;;;;;;30.83;17.38;;;;;;;;;;5773193;28;20057;-70
2023/10/19 17:13:09;;;;;;;31.77;16.95;;;;;;;;;;5765249;28;20043;-70